createdAt,value
2022-09-06T00:01:16.277Z,4.90
2022-09-06T00:03:44.893Z,4.50
2022-09-06T00:06:19.006Z,4.40
2022-09-06T00:08:48.063Z,4.43
2022-09-06T00:11:16.822Z,4.47
2022-09-06T00:13:45.096Z,4.50
2022-09-06T00:16:18.920Z,4.30
2022-09-06T00:18:46.874Z,4.28
2022-09-06T00:21:25.574Z,4.53
2022-09-06T00:23:53.752Z,4.25
2022-09-06T00:26:22.427Z,4.43
2022-09-06T00:28:50.150Z,4.88
2022-09-06T00:31:24.579Z,4.97
2022-09-06T00:33:52.724Z,4.37
2022-09-06T00:36:21.535Z,4.88
2022-09-06T00:38:49.496Z,4.90
2022-09-06T00:41:17.566Z,4.63
2022-09-06T00:43:45.184Z,4.60
2022-09-06T00:46:27.055Z,4.80
2022-09-06T00:49:31.362Z,5.38
2022-09-06T00:52:13.751Z,4.82
2022-09-06T00:54:42.340Z,5.80
2022-09-06T00:57:10.684Z,5.30
2022-09-06T00:59:40.133Z,5.27
2022-09-06T01:02:09.538Z,5.32
2022-09-06T01:04:40.526Z,5.40
2022-09-06T01:07:14.054Z,5.10
2022-09-06T01:09:53.838Z,4.82
2022-09-06T01:12:31.195Z,5.17
2022-09-06T01:15:06.100Z,4.85
2022-09-06T01:17:52.521Z,4.97
2022-09-06T01:20:29.261Z,4.60
2022-09-06T01:23:15.161Z,4.90
2022-09-06T01:25:48.648Z,5.57
2022-09-06T01:28:22.253Z,5.13
2022-09-06T01:31:03.155Z,5.50
2022-09-06T01:33:54.436Z,5.45
2022-09-06T01:36:27.101Z,5.25
2022-09-06T01:38:54.689Z,5.43
2022-09-06T01:41:22.229Z,5.35
2022-09-06T01:43:52.679Z,4.85
2022-09-06T01:46:39.937Z,5.13
2022-09-06T01:49:20.599Z,5.13
2022-09-06T01:52:06.589Z,5.23
2022-09-06T01:54:40.101Z,5.93
2022-09-06T01:57:13.982Z,6.00
2022-09-06T02:00:03.885Z,5.57
2022-09-06T02:02:51.647Z,5.93
2022-09-06T02:05:35.067Z,5.90
2022-09-06T02:08:11.880Z,5.95
2022-09-06T02:10:43.361Z,5.95
2022-09-06T02:13:14.024Z,6.18
2022-09-06T02:15:54.348Z,6.10
2022-09-06T02:18:28.248Z,5.53
2022-09-06T02:20:59.073Z,5.70
2022-09-06T02:23:30.173Z,6.25
2022-09-06T02:26:04.556Z,5.63
2022-09-06T02:28:32.406Z,5.25
2022-09-06T02:31:04.499Z,5.83
2022-09-06T02:33:35.815Z,6.10
2022-09-06T02:36:07.420Z,6.15
2022-09-06T02:38:37.939Z,6.00
2022-09-06T02:41:06.552Z,6.35
2022-09-06T02:43:34.423Z,5.83
2022-09-06T02:46:02.284Z,5.45
2022-09-06T02:48:30.090Z,6.88
2022-09-06T02:50:57.726Z,6.25
2022-09-06T02:53:25.252Z,6.15
2022-09-06T02:55:53.311Z,5.23
2022-09-06T02:58:21.048Z,5.45
2022-09-06T03:00:51.280Z,5.63
2022-09-06T03:03:22.590Z,5.13
2022-09-06T03:05:51.641Z,4.78
2022-09-06T03:08:21.253Z,4.50
2022-09-06T03:10:54.272Z,4.90
2022-09-06T03:13:23.391Z,4.28
2022-09-06T03:15:57.216Z,4.10
2022-09-06T03:18:26.139Z,3.75
2022-09-06T03:20:56.178Z,3.73
2022-09-06T03:23:26.479Z,3.50
2022-09-06T03:25:54.364Z,3.92
2022-09-06T03:28:23.298Z,4.28
2022-09-06T03:30:51.985Z,4.75
2022-09-06T03:33:20.639Z,5.27
2022-09-06T03:35:56.413Z,4.97
2022-09-06T03:38:25.969Z,4.80
2022-09-06T03:40:54.153Z,4.63
2022-09-06T03:43:23.476Z,5.15
2022-09-06T03:45:53.578Z,4.50
2022-09-06T03:48:22.816Z,4.97
2022-09-06T03:50:54.278Z,5.32
2022-09-06T03:53:23.349Z,5.85
2022-09-06T03:55:53.258Z,5.68
2022-09-06T03:58:23.698Z,6.20
2022-09-06T04:01:04.568Z,6.05
2022-09-06T04:03:33.133Z,6.05
2022-09-06T04:06:01.120Z,6.30
2022-09-06T04:08:29.018Z,6.25
2022-09-06T04:10:57.835Z,6.97
2022-09-06T04:13:27.166Z,6.90
2022-09-06T04:15:55.230Z,6.57
2022-09-06T04:18:23.299Z,6.72
2022-09-06T04:20:52.993Z,7.20
2022-09-06T04:23:20.957Z,7.57
2022-09-06T04:25:50.191Z,7.80
2022-09-06T04:28:18.718Z,7.53
2022-09-06T04:30:55.546Z,7.03
2022-09-06T04:33:26.451Z,6.43
2022-09-06T04:35:56.984Z,7.10
2022-09-06T04:38:25.858Z,6.57
2022-09-06T04:40:55.580Z,5.88
2022-09-06T04:43:23.708Z,5.97
2022-09-06T04:45:51.638Z,6.00
2022-09-06T04:48:19.500Z,5.93
2022-09-06T04:50:47.065Z,5.30
2022-09-06T04:53:14.674Z,5.68
2022-09-06T04:55:42.175Z,6.03
2022-09-06T04:58:09.737Z,5.78
2022-09-06T05:00:38.868Z,4.90
2022-09-06T05:03:06.796Z,4.78
2022-09-06T05:05:35.894Z,5.00
2022-09-06T05:08:03.634Z,5.18
2022-09-06T05:10:31.120Z,5.55
2022-09-06T05:12:58.718Z,6.00
2022-09-06T05:15:26.310Z,5.50
2022-09-06T05:17:53.883Z,6.10
2022-09-06T05:20:21.816Z,6.45
2022-09-06T05:22:54.395Z,5.90
2022-09-06T05:25:22.206Z,5.63
2022-09-06T05:27:49.758Z,5.75
2022-09-06T05:30:18.439Z,4.75
2022-09-06T05:32:45.944Z,5.60
2022-09-06T05:35:13.632Z,4.95
2022-09-06T05:37:41.118Z,5.07
2022-09-06T05:40:09.300Z,5.40
2022-09-06T05:42:37.103Z,5.25
2022-09-06T05:45:06.866Z,5.35
2022-09-06T05:47:35.611Z,5.75
2022-09-06T05:50:03.746Z,5.57
2022-09-06T05:52:40.498Z,5.95
2022-09-06T05:55:16.150Z,5.72
2022-09-06T05:57:46.168Z,5.75
2022-09-06T06:00:14.230Z,5.43
2022-09-06T06:02:42.083Z,5.80
2022-09-06T06:05:09.865Z,5.93
2022-09-06T06:07:37.426Z,6.65
2022-09-06T06:10:05.413Z,6.57
2022-09-06T06:12:33.448Z,6.80
2022-09-06T06:15:01.011Z,6.97
2022-09-06T06:17:28.557Z,7.00
2022-09-06T06:19:56.092Z,6.90
2022-09-06T06:22:23.596Z,6.50
2022-09-06T06:24:51.174Z,6.13
2022-09-06T06:27:18.797Z,6.50
2022-09-06T06:29:46.341Z,6.82
2022-09-06T06:32:13.955Z,7.05
2022-09-06T06:34:41.547Z,7.30
2022-09-06T06:37:09.160Z,7.28
2022-09-06T06:39:37.169Z,6.63
2022-09-06T06:42:04.916Z,6.20
2022-09-06T06:44:46.792Z,6.45
2022-09-06T06:47:14.441Z,6.60
2022-09-06T06:49:42.014Z,7.13
2022-09-06T06:52:09.611Z,7.27
2022-09-06T06:54:37.603Z,7.68
2022-09-06T06:57:05.507Z,7.25
2022-09-06T06:59:33.243Z,8.00
2022-09-06T07:02:01.206Z,8.10
2022-09-06T07:04:28.868Z,7.30
2022-09-06T07:12:32.463Z,6.28
2022-09-06T07:15:00.310Z,5.88
2022-09-06T07:17:28.402Z,6.00
2022-09-06T07:22:39.738Z,5.90
2022-09-06T07:25:09.132Z,6.53
2022-09-06T07:30:11.910Z,6.00
2022-09-06T07:32:39.474Z,5.63
2022-09-06T07:35:07.604Z,5.70
2022-09-06T07:37:35.552Z,5.20
2022-09-06T07:40:04.393Z,4.85
2022-09-06T07:42:36.559Z,5.70
2022-09-06T07:45:05.516Z,5.28
2022-09-06T07:53:13.969Z,4.72
2022-09-06T07:55:43.416Z,4.27
2022-09-06T07:58:11.216Z,3.83
2022-09-06T08:00:41.326Z,3.17
2022-09-06T08:03:09.277Z,3.78
2022-09-06T08:11:14.195Z,3.65
2022-09-06T08:13:42.890Z,3.53
2022-09-06T08:16:12.549Z,3.10
2022-09-06T08:18:40.295Z,3.22
2022-09-06T08:21:13.424Z,3.27
2022-09-06T08:23:44.968Z,2.70
2022-09-06T08:26:12.973Z,3.00
2022-09-06T08:28:40.506Z,2.85
2022-09-06T08:31:10.211Z,2.67
2022-09-06T08:33:38.888Z,2.70
2022-09-06T08:36:07.335Z,2.53
2022-09-06T08:38:35.776Z,2.50
2022-09-06T08:41:44.721Z,2.38
2022-09-06T08:47:21.961Z,2.17
2022-09-06T08:49:54.953Z,2.08
2022-09-06T08:56:13.571Z,2.60
2022-09-06T08:58:44.567Z,2.20
2022-09-06T09:01:18.447Z,2.10
2022-09-06T09:03:47.188Z,2.00
2022-09-06T09:06:14.730Z,2.47
2022-09-06T09:09:14.648Z,2.10
2022-09-06T09:11:49.961Z,1.50
2022-09-06T09:14:17.651Z,1.67
2022-09-06T09:16:45.418Z,1.77
2022-09-06T09:19:13.618Z,1.65
2022-09-06T09:21:41.768Z,1.33
2022-09-06T09:24:12.330Z,1.30
2022-09-06T09:26:58.199Z,1.23
2022-09-06T09:29:29.401Z,1.20
2022-09-06T09:31:58.233Z,1.10
2022-09-06T09:34:33.985Z,1.05
2022-09-06T09:40:34.878Z,0.80
2022-09-06T09:43:30.883Z,0.90
2022-09-06T09:46:33.246Z,1.00
2022-09-06T09:49:28.727Z,0.90
2022-09-06T09:52:13.634Z,0.90
2022-09-06T09:54:44.569Z,0.70
2022-09-06T09:57:17.877Z,0.88
2022-09-06T09:59:58.387Z,1.10
2022-09-06T10:02:31.240Z,1.00
2022-09-06T10:05:04.924Z,1.20
2022-09-06T10:07:34.211Z,1.47
2022-09-06T10:10:11.167Z,1.00
2022-09-06T10:12:41.580Z,1.00
2022-09-06T10:15:33.082Z,1.05
2022-09-06T10:18:00.942Z,1.25
2022-09-06T10:20:38.406Z,0.77
2022-09-06T10:23:12.061Z,1.10
2022-09-06T10:25:48.904Z,1.10
2022-09-06T10:28:29.782Z,0.75
2022-09-06T10:31:22.418Z,0.98
2022-09-06T10:34:11.758Z,1.00
2022-09-06T10:36:44.579Z,1.08
2022-09-06T10:39:33.771Z,0.90
2022-09-06T10:42:22.403Z,1.00
2022-09-06T10:45:18.848Z,0.95
2022-09-06T10:47:49.390Z,0.90
2022-09-06T10:50:17.515Z,0.98
2022-09-06T10:52:48.866Z,0.88
2022-09-06T10:55:18.783Z,0.90
2022-09-06T11:00:47.487Z,0.90
2022-09-06T11:06:31.711Z,1.00
2022-09-06T11:09:17.363Z,0.77
2022-09-06T11:11:47.765Z,0.80
2022-09-06T11:14:15.957Z,0.97
2022-09-06T11:16:52.012Z,0.70
2022-09-06T11:19:28.674Z,0.70
2022-09-06T11:22:10.682Z,1.20
2022-09-06T11:24:49.353Z,1.23
2022-09-06T11:27:32.260Z,0.80
2022-09-06T11:30:01.761Z,1.00
2022-09-06T11:32:35.043Z,1.00
2022-09-06T11:35:20.606Z,0.90
2022-09-06T11:37:57.385Z,0.90
2022-09-06T11:40:36.612Z,0.93
2022-09-06T11:43:04.392Z,0.90
2022-09-06T11:45:45.922Z,0.98
2022-09-06T11:49:06.148Z,0.80
2022-09-06T11:51:38.032Z,0.88
2022-09-06T11:54:33.248Z,0.80
2022-09-06T11:57:15.410Z,0.75
2022-09-06T11:59:46.012Z,0.73
2022-09-06T12:02:32.528Z,1.00
2022-09-06T12:05:07.379Z,0.90
2022-09-06T12:07:54.629Z,1.30
2022-09-06T12:10:31.364Z,0.93
2022-09-06T12:12:59.032Z,0.80
2022-09-06T12:15:32.974Z,1.00
2022-09-06T12:18:01.047Z,0.70
2022-09-06T12:20:54.428Z,1.00
2022-09-06T12:23:37.198Z,0.90
2022-09-06T12:26:07.008Z,0.80
2022-09-06T12:29:09.492Z,0.90
2022-09-06T12:31:43.651Z,0.90
2022-09-06T12:34:21.319Z,0.80
2022-09-06T12:37:01.255Z,1.00
2022-09-06T12:39:28.937Z,0.82
2022-09-06T12:42:01.442Z,0.93
2022-09-06T12:44:36.382Z,0.80
2022-09-06T12:47:14.400Z,0.80
2022-09-06T12:49:41.967Z,0.70
2022-09-06T12:52:12.457Z,0.80
2022-09-06T12:54:49.461Z,0.75
2022-09-06T12:57:23.586Z,0.82
2022-09-06T12:59:56.951Z,0.70
2022-09-06T13:02:35.588Z,0.90
2022-09-06T13:05:09.744Z,1.00
2022-09-06T13:07:45.121Z,0.90
2022-09-06T13:10:19.469Z,0.93
2022-09-06T13:12:51.114Z,0.70
2022-09-06T13:15:22.824Z,0.82
2022-09-06T13:17:50.632Z,0.85
2022-09-06T13:20:21.088Z,0.80
2022-09-06T13:22:51.304Z,0.80
2022-09-06T13:25:21.555Z,0.67
2022-09-06T13:27:51.509Z,0.63
2022-09-06T13:30:42.516Z,1.05
2022-09-06T13:33:41.194Z,0.73
2022-09-06T13:36:11.477Z,0.70
2022-09-06T13:38:39.048Z,0.80
2022-09-06T13:41:41.344Z,0.90
2022-09-06T13:44:11.665Z,1.05
2022-09-06T13:46:39.245Z,0.98
2022-09-06T13:49:07.632Z,1.00
2022-09-06T13:51:38.015Z,1.10
2022-09-06T13:54:10.598Z,0.85
2022-09-06T13:56:39.397Z,1.27
2022-09-06T13:59:09.885Z,1.20
2022-09-06T14:01:39.437Z,0.98
2022-09-06T14:04:07.696Z,0.90
2022-09-06T14:06:37.007Z,1.30
2022-09-06T14:09:07.636Z,0.90
2022-09-06T14:11:36.248Z,1.23
2022-09-06T14:14:04.353Z,0.93
2022-09-06T14:16:33.899Z,1.43
2022-09-06T14:19:01.795Z,1.17
2022-09-06T14:21:29.391Z,1.15
2022-09-06T14:24:03.336Z,1.08
2022-09-06T14:26:33.285Z,1.10
2022-09-06T14:29:01.034Z,1.20
2022-09-06T14:31:29.810Z,1.23
2022-09-06T14:33:58.146Z,1.10
2022-09-06T14:36:29.326Z,1.30
2022-09-06T14:38:58.679Z,2.85
2022-09-06T14:41:26.746Z,1.00
2022-09-06T14:43:57.276Z,1.30
2022-09-06T14:46:26.827Z,1.00
2022-09-06T14:49:00.855Z,1.30
2022-09-06T14:51:30.256Z,1.25
2022-09-06T14:54:02.026Z,1.37
2022-09-06T14:56:30.458Z,0.95
2022-09-06T14:58:59.963Z,1.00
2022-09-06T15:01:33.018Z,1.20
2022-09-06T15:04:10.133Z,1.33
2022-09-06T15:06:40.771Z,1.00
2022-09-06T15:09:11.492Z,1.30
2022-09-06T15:11:48.916Z,1.20
2022-09-06T15:14:22.542Z,1.10
2022-09-06T15:16:55.953Z,0.98
2022-09-06T15:19:25.107Z,1.00
2022-09-06T15:21:55.304Z,0.80
2022-09-06T15:24:23.341Z,0.75
2022-09-06T15:26:51.091Z,0.70
2022-09-06T15:29:20.472Z,1.20
2022-09-06T15:31:50.635Z,0.87
2022-09-06T15:34:20.196Z,1.10
2022-09-06T15:36:47.834Z,0.65
2022-09-06T15:39:15.545Z,0.60
2022-09-06T15:41:43.207Z,0.50
2022-09-06T15:44:13.106Z,0.50
2022-09-06T15:46:43.753Z,0.70
2022-09-06T15:49:14.772Z,0.50
2022-09-06T15:51:42.936Z,0.32
2022-09-06T15:54:12.056Z,0.40
2022-09-06T15:56:39.858Z,0.50
2022-09-06T15:59:07.966Z,0.50
2022-09-06T16:01:35.738Z,0.55
2022-09-06T16:04:06.233Z,0.50
2022-09-06T16:06:37.785Z,0.52
2022-09-06T16:09:17.748Z,0.60
2022-09-06T16:11:45.685Z,0.60
2022-09-06T16:14:15.474Z,0.73
2022-09-06T16:16:43.570Z,0.45
2022-09-06T16:19:12.740Z,0.65
2022-09-06T16:21:43.775Z,0.63
2022-09-06T16:24:13.325Z,0.65
2022-09-06T16:26:43.838Z,0.40
2022-09-06T16:29:13.382Z,0.50
2022-09-06T16:31:41.347Z,0.60
2022-09-06T16:34:10.312Z,0.50
2022-09-06T16:36:38.378Z,0.80
2022-09-06T16:39:07.351Z,0.60
2022-09-06T16:41:40.664Z,0.70
2022-09-06T16:44:10.277Z,0.63
2022-09-06T16:46:40.264Z,0.80
2022-09-06T16:49:08.599Z,0.63
2022-09-06T16:51:36.649Z,0.60
2022-09-06T16:54:04.600Z,0.65
2022-09-06T16:56:35.819Z,0.70
2022-09-06T16:59:06.554Z,0.70
2022-09-06T17:01:35.275Z,0.40
2022-09-06T17:04:04.140Z,0.38
2022-09-06T17:06:33.285Z,0.47
2022-09-06T17:09:00.842Z,0.40
2022-09-06T17:11:29.302Z,0.43
2022-09-06T17:13:58.193Z,0.43
2022-09-06T17:16:44.642Z,0.40
2022-09-06T17:19:14.017Z,0.60
2022-09-06T17:21:41.942Z,0.60
2022-09-06T17:24:09.727Z,0.60
2022-09-06T17:26:39.397Z,1.02
2022-09-06T17:29:07.786Z,1.30
2022-09-06T17:31:36.919Z,2.00
2022-09-06T17:34:05.379Z,1.85
2022-09-06T17:36:34.153Z,2.20
2022-09-06T17:39:08.199Z,2.17
2022-09-06T17:41:41.756Z,2.40
2022-09-06T17:44:11.663Z,2.50
2022-09-06T17:46:47.949Z,2.10
2022-09-06T17:49:28.338Z,2.27
2022-09-06T17:51:56.712Z,2.40
2022-09-06T17:54:24.592Z,2.47
2022-09-06T17:56:52.426Z,2.05
2022-09-06T17:59:20.138Z,1.73
2022-09-06T18:01:47.729Z,2.00
2022-09-06T18:04:16.134Z,2.20
2022-09-06T18:06:46.387Z,1.90
2022-09-06T18:09:17.668Z,1.90
2022-09-06T18:11:46.865Z,1.70
2022-09-06T18:14:17.562Z,1.80
2022-09-06T18:16:47.473Z,1.65
2022-09-06T18:19:16.324Z,2.00
2022-09-06T18:21:44.207Z,2.25
2022-09-06T18:24:13.864Z,2.22
2022-09-06T18:26:43.109Z,2.23
2022-09-06T18:29:16.771Z,2.45
2022-09-06T18:31:44.933Z,2.10
2022-09-06T18:34:12.743Z,2.33
2022-09-06T18:36:40.835Z,2.05
2022-09-06T18:39:08.745Z,2.10
2022-09-06T18:41:55.379Z,2.13
2022-09-06T18:44:23.146Z,2.00
2022-09-06T18:46:50.785Z,2.17
2022-09-06T18:49:18.513Z,1.67
2022-09-06T18:51:46.574Z,1.73
2022-09-06T18:54:14.778Z,2.03
2022-09-06T18:56:44.925Z,2.03
2022-09-06T18:59:13.961Z,1.50
2022-09-06T19:01:43.122Z,1.50
2022-09-06T19:04:12.280Z,1.60
2022-09-06T19:06:43.621Z,1.38
2022-09-06T19:09:14.389Z,1.50
2022-09-06T19:11:43.512Z,1.20
2022-09-06T19:14:11.640Z,1.20
2022-09-06T19:16:39.330Z,1.47
2022-09-06T19:19:09.006Z,1.35
2022-09-06T19:21:41.457Z,1.20
2022-09-06T19:24:12.994Z,1.35
2022-09-06T19:26:43.467Z,1.20
2022-09-06T19:29:18.875Z,1.10
2022-09-06T19:31:47.509Z,1.30
2022-09-06T19:34:16.233Z,1.23
2022-09-06T19:36:44.971Z,1.25
2022-09-06T19:39:14.963Z,1.50
2022-09-06T19:41:45.215Z,1.60
2022-09-06T19:44:14.713Z,1.70
2022-09-06T19:46:46.132Z,1.50
2022-09-06T19:49:19.682Z,1.60
2022-09-06T19:51:48.985Z,1.80
2022-09-06T19:54:17.390Z,2.10
2022-09-06T19:56:46.033Z,2.17
2022-09-06T19:59:14.805Z,2.17
2022-09-06T20:01:44.642Z,2.40
2022-09-06T20:04:13.493Z,3.10
2022-09-06T20:06:41.297Z,3.20
2022-09-06T20:09:10.734Z,3.03
2022-09-06T20:11:40.177Z,2.85
2022-09-06T20:14:08.640Z,3.00
2022-09-06T20:16:41.131Z,3.20
2022-09-06T20:19:10.788Z,3.40
2022-09-06T20:21:38.387Z,3.17
2022-09-06T20:24:06.197Z,3.25
2022-09-06T20:26:33.805Z,3.30
2022-09-06T20:29:03.220Z,3.63
2022-09-06T20:31:32.856Z,3.33
2022-09-06T20:34:02.070Z,3.17
2022-09-06T20:36:30.289Z,3.80
2022-09-06T20:38:57.904Z,4.00
2022-09-06T20:41:27.158Z,4.78
2022-09-06T20:43:59.598Z,4.63
2022-09-06T20:46:29.845Z,7.07
2022-09-06T20:48:59.888Z,8.93
2022-09-06T20:51:27.844Z,7.93
2022-09-06T20:53:58.145Z,7.85
2022-09-06T20:56:31.269Z,7.20
2022-09-06T20:59:01.178Z,6.90
2022-09-06T21:01:31.185Z,6.95
2022-09-06T21:04:00.381Z,6.30
2022-09-06T21:06:30.514Z,5.75
2022-09-06T21:08:58.342Z,4.60
2022-09-06T21:11:26.591Z,5.32
2022-09-06T21:13:56.435Z,5.75
2022-09-06T21:16:26.458Z,6.32
2022-09-06T21:18:56.381Z,5.70
2022-09-06T21:21:25.577Z,5.33
2022-09-06T21:23:54.107Z,4.60
2022-09-06T21:26:22.541Z,4.88
2022-09-06T21:28:50.661Z,4.60
2022-09-06T21:31:23.967Z,4.32
2022-09-06T21:33:53.848Z,3.97
2022-09-06T21:36:29.377Z,3.63
2022-09-06T21:39:02.080Z,3.70
2022-09-06T21:41:30.460Z,3.83
2022-09-06T21:43:59.825Z,3.78
2022-09-06T21:46:33.374Z,3.73
2022-09-06T21:49:08.044Z,3.20
2022-09-06T21:51:36.506Z,3.33
2022-09-06T21:54:05.127Z,3.20
2022-09-06T21:56:36.022Z,3.15
2022-09-06T21:59:05.114Z,3.53
2022-09-06T22:01:34.775Z,3.00
2022-09-06T22:04:03.435Z,2.80
2022-09-06T22:06:32.927Z,3.30
2022-09-06T22:09:04.536Z,3.28
2022-09-06T22:11:34.272Z,2.97
2022-09-06T22:14:04.801Z,2.88
2022-09-06T22:16:34.722Z,2.85
2022-09-06T22:19:04.908Z,3.58
2022-09-06T22:21:33.727Z,3.58
2022-09-06T22:24:04.007Z,3.10
2022-09-06T22:26:33.411Z,3.47
2022-09-06T22:29:03.649Z,3.00
2022-09-06T22:31:32.910Z,3.30
2022-09-06T22:34:01.048Z,3.38
2022-09-06T22:36:28.968Z,2.90
2022-09-06T22:38:57.721Z,3.22
2022-09-06T22:41:27.252Z,3.95
2022-09-06T22:43:55.214Z,3.30
2022-09-06T22:46:23.089Z,3.20
2022-09-06T22:48:50.778Z,3.13
2022-09-06T22:51:18.338Z,3.50
2022-09-06T22:56:27.351Z,3.72
2022-09-06T22:58:54.859Z,3.20
2022-09-06T23:01:22.513Z,3.20
2022-09-06T23:03:51.237Z,3.47
2022-09-06T23:06:18.860Z,3.20
2022-09-06T23:08:46.456Z,3.60
2022-09-06T23:11:16.551Z,3.92
2022-09-06T23:13:44.823Z,3.57
2022-09-06T23:16:15.345Z,3.65
2022-09-06T23:18:43.779Z,4.03
2022-09-06T23:21:22.329Z,4.70
2022-09-06T23:23:51.931Z,5.25
2022-09-06T23:26:22.941Z,5.13
2022-09-06T23:28:56.412Z,5.63
2022-09-06T23:31:26.095Z,5.22
2022-09-06T23:33:55.499Z,5.65
2022-09-06T23:36:23.844Z,5.55
2022-09-06T23:38:51.593Z,5.30
2022-09-06T23:41:19.287Z,5.30
2022-09-06T23:43:46.864Z,6.18
2022-09-06T23:46:17.153Z,5.65
2022-09-06T23:48:44.896Z,5.35
2022-09-06T23:51:13.014Z,5.43
2022-09-06T23:53:40.714Z,5.32
2022-09-06T23:56:08.567Z,5.72
2022-09-06T23:58:36.957Z,6.15
